Time;durP1;ratioP1;P1;durP2;ratioP2;P2;SDS_P1;SDS_P2;PMS_P1;PMS_P2;Temp;Humidity;BMP_temperature;BMP_pressure;BME280_temperature;BME280_humidity;BME280_pressure;Samples;Min_cycle;Max_cycle;Signal;HPM_P1;HPM_P2
2021/10/03 00:00:30;;;;;;;;;3.33;2.00;;;;;24.72;46.88;99307.13;5075505;27;45491;-66
2021/10/03 00:02:57;;;;;;;;;3.00;2.00;;;;;24.74;46.66;99303.19;5059338;28;45520;-67
2021/10/03 00:05:23;;;;;;;;;2.00;2.00;;;;;24.77;46.44;99309.06;5063691;28;45451;-67
2021/10/03 00:07:51;;;;;;;;;2.00;2.00;;;;;24.70;46.36;99302.00;5063872;28;45568;-67
2021/10/03 00:10:20;;;;;;;;;1.00;1.00;;;;;24.79;46.43;99299.00;5063848;28;45470;-67
2021/10/03 00:12:47;;;;;;;;;1.67;1.33;;;;;24.78;46.03;99287.53;5060473;28;45421;-67
2021/10/03 00:15:15;;;;;;;;;1.00;1.00;;;;;24.79;46.03;99299.81;5058616;28;46137;-67
2021/10/03 00:17:41;;;;;;;;;2.33;1.00;;;;;24.79;45.97;99307.78;5060368;28;45385;-67
2021/10/03 00:20:09;;;;;;;;;1.00;1.00;;;;;24.78;46.05;99319.44;5061822;28;45429;-67
2021/10/03 00:22:34;;;;;;;;;1.00;1.00;;;;;24.74;45.71;99313.81;5058705;28;45633;-67
2021/10/03 00:25:00;;;;;;;;;1.00;1.00;;;;;24.76;45.99;99337.50;5057775;28;45623;-67
2021/10/03 00:27:25;;;;;;;;;1.00;1.00;;;;;24.66;45.94;99311.50;5057953;28;45290;-67
2021/10/03 00:29:51;;;;;;;;;2.00;0.33;;;;;24.76;45.70;99326.88;5056230;28;45275;-67
2021/10/03 00:32:16;;;;;;;;;3.33;2.00;;;;;24.76;45.61;99328.72;5062040;28;45411;-67
2021/10/03 00:34:41;;;;;;;;;2.00;2.00;;;;;24.76;45.55;99334.03;5061530;28;46217;-67
2021/10/03 00:37:07;;;;;;;;;1.25;1.25;;;;;24.69;45.65;99316.38;5059982;28;45660;-67
2021/10/03 00:39:32;;;;;;;;;1.00;1.00;;;;;24.68;45.90;99305.94;5058189;28;45363;-67
2021/10/03 00:41:58;;;;;;;;;1.00;1.00;;;;;24.75;45.55;99319.91;5059427;28;45489;-66
2021/10/03 00:44:23;;;;;;;;;1.00;1.00;;;;;24.75;45.61;99322.56;5061100;28;46125;-67
2021/10/03 00:46:51;;;;;;;;;1.00;1.00;;;;;24.70;45.15;99319.81;5061446;28;45578;-67
2021/10/03 00:49:16;;;;;;;;;1.00;1.00;;;;;24.73;45.55;99329.97;5061676;28;47465;-67
2021/10/03 00:51:42;;;;;;;;;1.67;1.00;;;;;24.72;45.32;99331.84;5058748;28;45359;-67
2021/10/03 00:54:07;;;;;;;;;1.67;1.00;;;;;24.69;45.55;99329.66;5058918;28;46046;-67
2021/10/03 00:56:33;;;;;;;;;1.67;1.67;;;;;24.72;45.50;99333.72;5059986;27;45309;-67
2021/10/03 00:58:59;;;;;;;;;1.00;1.00;;;;;24.68;45.52;99332.53;5060181;28;45666;-67
2021/10/03 01:01:25;;;;;;;;;2.33;1.00;;;;;24.72;45.60;99325.72;5061159;28;45434;-67
2021/10/03 01:03:51;;;;;;;;;1.00;1.00;;;;;24.71;45.28;99316.13;5059715;28;46915;-67
2021/10/03 01:06:16;;;;;;;;;1.00;1.00;;;;;24.71;45.60;99316.94;5057243;28;45377;-67
2021/10/03 01:08:42;;;;;;;;;1.00;1.00;;;;;24.70;45.36;99319.81;5063580;28;45152;-68
2021/10/03 01:11:07;;;;;;;;;1.33;1.33;;;;;24.69;45.47;99319.03;5070596;28;45438;-67
2021/10/03 01:13:33;;;;;;;;;0.33;0.33;;;;;24.69;45.59;99308.41;5067733;27;46362;-68
2021/10/03 01:15:58;;;;;;;;;2.00;2.00;;;;;24.65;45.26;99309.06;5072345;27;45452;-67
2021/10/03 01:18:25;;;;;;;;;1.00;1.00;;;;;24.55;45.26;99299.03;5061423;28;45290;-67
2021/10/03 01:20:51;;;;;;;;;1.00;1.00;;;;;24.69;45.63;99318.22;5058454;27;45556;-67
2021/10/03 01:23:17;;;;;;;;;3.00;1.75;;;;;24.60;45.50;99301.81;5061032;28;45477;-67
2021/10/03 01:25:46;;;;;;;;;0.00;0.00;;;;;24.67;45.47;99321.09;5061100;28;45514;-67
2021/10/03 01:28:12;;;;;;;;;1.00;1.00;;;;;24.67;45.17;99328.28;5061203;28;45356;-67
2021/10/03 01:30:41;;;;;;;;;3.00;1.67;;;;;24.67;45.34;99329.06;5061175;28;45612;-67
2021/10/03 01:33:06;;;;;;;;;1.00;1.00;;;;;24.67;45.41;99330.94;5058967;28;45886;-67
2021/10/03 01:35:32;;;;;;;;;0.33;0.33;;;;;24.54;45.40;99311.53;5059992;28;45411;-67
2021/10/03 01:37:57;;;;;;;;;1.00;1.00;;;;;24.65;45.63;99312.56;5061144;28;45386;-67
2021/10/03 01:40:23;;;;;;;;;1.00;1.00;;;;;24.65;45.46;99307.22;5064320;28;45490;-67
2021/10/03 01:42:50;;;;;;;;;1.00;1.00;;;;;24.65;45.01;99303.75;5060885;28;45379;-67
2021/10/03 01:45:17;;;;;;;;;1.00;1.00;;;;;24.60;45.14;99288.50;5059538;28;45260;-67
2021/10/03 01:48:06;;;;;;;;;2.00;2.00;;;;;24.63;45.49;99288.06;5058088;28;45396;-67
2021/10/03 01:50:35;;;;;;;;;0.00;0.00;;;;;24.61;45.58;99271.53;5060178;28;45315;-67
2021/10/03 01:53:01;;;;;;;;;1.00;0.00;;;;;24.61;45.40;99266.22;5073892;28;45836;-67
2021/10/03 01:55:26;;;;;;;;;1.00;1.00;;;;;24.62;45.57;99265.97;5076386;27;45486;-68
2021/10/03 01:57:52;;;;;;;;;0.00;0.00;;;;;24.60;45.25;99256.59;5076797;27;45440;-67
2021/10/03 02:00:17;;;;;;;;;1.00;1.00;;;;;24.61;45.47;99251.06;5076369;27;45580;-67
2021/10/03 02:02:45;;;;;;;;;2.67;1.67;;;;;24.60;45.48;99262.75;5076765;27;45423;-67
2021/10/03 02:05:11;;;;;;;;;1.00;1.00;;;;;24.56;45.22;99248.31;5075086;27;45565;-67
2021/10/03 02:07:36;;;;;;;;;1.00;1.00;;;;;24.60;45.53;99257.41;5075354;27;45328;-67
2021/10/03 02:10:02;;;;;;;;;1.00;0.00;;;;;24.60;45.48;99243.31;5073988;27;45573;-67
2021/10/03 02:12:28;;;;;;;;;0.00;0.00;;;;;24.59;45.21;99234.53;5074827;28;46388;-67
2021/10/03 02:14:53;;;;;;;;;1.00;1.00;;;;;24.59;45.54;99234.53;5067833;28;45343;-67
2021/10/03 02:17:18;;;;;;;;;0.00;0.00;;;;;24.59;45.32;99225.75;5094713;27;45565;-67
2021/10/03 02:19:45;;;;;;;;;1.00;1.00;;;;;24.57;44.94;99223.31;5065096;28;45476;-67
2021/10/03 02:22:11;;;;;;;;;1.00;1.00;;;;;24.55;45.29;99222.75;5059067;28;47224;-67
2021/10/03 02:24:37;;;;;;;;;0.00;0.00;;;;;24.58;45.37;99222.28;5059035;28;45212;-67
2021/10/03 02:27:02;;;;;;;;;1.33;1.00;;;;;24.51;45.30;99216.31;5057074;28;45319;-67
2021/10/03 02:29:28;;;;;;;;;2.00;0.00;;;;;24.55;45.01;99221.94;5061967;27;45356;-67
2021/10/03 02:31:56;;;;;;;;;0.00;0.00;;;;;24.52;45.67;99207.28;5062149;28;46078;-67
2021/10/03 02:34:22;;;;;;;;;1.00;1.00;;;;;24.52;45.17;99212.59;5060831;27;45408;-67
2021/10/03 02:36:48;;;;;;;;;1.00;1.00;;;;;24.52;45.36;99216.06;5060976;28;45458;-67
2021/10/03 02:39:14;;;;;;;;;0.00;0.00;;;;;24.56;45.07;99223.56;5058991;28;45398;-67
2021/10/03 02:41:40;;;;;;;;;1.00;1.00;;;;;24.56;45.30;99231.53;5060893;28;46102;-67
2021/10/03 02:44:08;;;;;;;;;1.00;1.00;;;;;24.54;45.26;99229.09;5062019;28;45508;-67
2021/10/03 02:46:34;;;;;;;;;0.00;0.00;;;;;24.51;45.30;99224.28;5062278;28;45406;-67
2021/10/03 02:49:00;;;;;;;;;0.00;0.00;;;;;24.56;44.83;99239.53;5061781;28;45579;-67
2021/10/03 02:51:28;;;;;;;;;0.33;0.33;;;;;24.55;45.12;99229.91;5057610;28;46313;-67
2021/10/03 02:53:55;;;;;;;;;0.00;0.00;;;;;24.55;45.09;99233.41;5072323;28;45300;-67
2021/10/03 02:56:23;;;;;;;;;0.00;0.00;;;;;24.55;45.34;99224.59;5061890;28;45262;-67
2021/10/03 02:58:49;;;;;;;;;0.00;0.00;;;;;24.55;45.11;99220.09;5061661;28;45419;-67
2021/10/03 03:01:15;;;;;;;;;0.00;0.00;;;;;24.55;44.78;99236.06;5020806;28;1179551;-67
2021/10/03 03:03:41;;;;;;;;;0.33;0.33;;;;;24.56;45.24;99236.88;5060572;28;45454;-67
2021/10/03 03:06:07;;;;;;;;;0.67;0.00;;;;;24.55;45.10;99237.91;5059382;28;45577;-67
2021/10/03 03:08:33;;;;;;;;;0.00;0.00;;;;;24.51;45.01;99230.38;5060640;28;45476;-67
2021/10/03 03:10:59;;;;;;;;;0.33;0.33;;;;;24.52;45.32;99226.69;5062818;28;46041;-67
2021/10/03 03:13:25;;;;;;;;;0.67;0.67;;;;;24.54;44.74;99231.78;5062931;28;45284;-67
2021/10/03 03:15:50;;;;;;;;;1.00;0.33;;;;;24.55;45.01;99238.72;5061702;28;45542;-67
2021/10/03 03:18:15;;;;;;;;;0.00;0.00;;;;;24.55;44.93;99243.22;5059373;28;45532;-67
2021/10/03 03:20:41;;;;;;;;;0.00;0.00;;;;;24.55;44.73;99237.91;5061529;28;45328;-67
2021/10/03 03:23:06;;;;;;;;;0.00;0.00;;;;;24.55;45.20;99232.56;5062816;28;45430;-67
2021/10/03 03:25:32;;;;;;;;;0.00;0.00;;;;;24.53;44.71;99232.81;5062766;28;45505;-67
2021/10/03 03:27:57;;;;;;;;;1.67;0.67;;;;;24.50;44.84;99206.72;5062776;28;45541;-67
2021/10/03 03:30:22;;;;;;;;;0.00;0.00;;;;;24.53;44.90;99208.91;5057383;28;46129;-67
2021/10/03 03:32:48;;;;;;;;;0.00;0.00;;;;;24.52;44.57;99224.03;5060947;28;46643;-67
2021/10/03 03:35:14;;;;;;;;;0.33;0.33;;;;;24.53;44.94;99235.50;5062622;28;45307;-67
2021/10/03 03:37:40;;;;;;;;;0.00;0.00;;;;;24.52;44.67;99233.84;5062447;28;45551;-67
2021/10/03 03:40:08;;;;;;;;;0.00;0.00;;;;;24.53;44.96;99230.16;5062306;28;47009;-67
2021/10/03 03:42:33;;;;;;;;;0.00;0.00;;;;;24.54;45.07;99230.97;5058923;28;45331;-67
2021/10/03 03:44:58;;;;;;;;;0.00;0.00;;;;;24.53;45.21;99219.53;5075171;28;45355;-67
2021/10/03 03:47:24;;;;;;;;;0.00;0.00;;;;;24.53;45.00;99214.22;5073771;28;45455;-67
2021/10/03 03:49:51;;;;;;;;;0.00;0.00;;;;;24.52;44.89;99209.94;5073278;27;45263;-67
2021/10/03 03:52:20;;;;;;;;;0.00;0.00;;;;;24.47;44.91;99210.66;5070482;27;45507;-67
2021/10/03 03:54:47;;;;;;;;;0.00;0.00;;;;;24.51;44.65;99209.13;5062894;28;45386;-67
2021/10/03 03:57:13;;;;;;;;;0.00;0.00;;;;;24.51;44.73;99211.78;5059195;28;45509;-67
2021/10/03 03:59:38;;;;;;;;;0.00;0.00;;;;;24.50;44.82;99207.53;5060565;28;46316;-67
2021/10/03 04:02:03;;;;;;;;;0.00;0.00;;;;;24.50;44.67;99212.03;5061816;28;45319;-67
2021/10/03 04:04:29;;;;;;;;;1.00;0.33;;;;;24.50;44.79;99223.47;5062156;28;45398;-67
2021/10/03 04:06:54;;;;;;;;;0.00;0.00;;;;;24.40;44.90;99207.31;5061706;28;45419;-67
2021/10/03 04:09:19;;;;;;;;;0.00;0.00;;;;;24.49;45.11;99221.84;5058102;28;46177;-67
2021/10/03 04:11:45;;;;;;;;;0.00;0.00;;;;;24.48;44.54;99219.44;5060691;28;45328;-67
2021/10/03 04:14:10;;;;;;;;;0.00;0.00;;;;;24.47;44.89;99218.63;5062072;28;45427;-67
2021/10/03 04:16:36;;;;;;;;;0.00;0.00;;;;;24.48;45.22;99227.41;5061371;28;45372;-67
2021/10/03 04:19:01;;;;;;;;;0.00;0.00;;;;;24.48;45.05;99230.88;5061868;28;48394;-67
2021/10/03 04:21:26;;;;;;;;;0.00;0.00;;;;;24.47;45.12;99237.22;5057604;28;45297;-67
2021/10/03 04:23:52;;;;;;;;;0.00;0.00;;;;;24.47;44.64;99229.25;5060633;28;45856;-67
2021/10/03 04:26:17;;;;;;;;;0.00;0.00;;;;;24.48;44.99;99232.72;5057122;28;45414;-67
2021/10/03 04:28:42;;;;;;;;;0.00;0.00;;;;;24.48;45.05;99254.00;5058206;28;47206;-67
2021/10/03 04:31:09;;;;;;;;;0.00;0.00;;;;;24.45;44.69;99257.94;5058020;28;45384;-67
2021/10/03 04:33:35;;;;;;;;;0.00;0.00;;;;;24.48;44.71;99267.28;5058259;28;45362;-67
2021/10/03 04:36:00;;;;;;;;;0.00;0.00;;;;;24.47;44.75;99258.50;5075446;28;45389;-67
2021/10/03 04:38:25;;;;;;;;;0.00;0.00;;;;;24.47;44.49;99234.56;5074891;28;47064;-67
2021/10/03 04:40:51;;;;;;;;;0.00;0.00;;;;;24.46;44.85;99224.97;5073844;27;45499;-67
2021/10/03 04:43:16;;;;;;;;;0.00;0.00;;;;;24.47;44.78;99210.66;5074178;27;45418;-67
2021/10/03 04:45:42;;;;;;;;;0.00;0.00;;;;;24.42;44.62;99197.25;5074021;27;45477;-67
2021/10/03 04:48:07;;;;;;;;;0.00;0.00;;;;;24.45;44.72;99214.59;5074598;27;46934;-67
2021/10/03 04:50:33;;;;;;;;;0.00;0.00;;;;;24.47;44.38;99239.06;5074015;28;45322;-67
2021/10/03 04:52:58;;;;;;;;;0.00;0.00;;;;;24.45;44.83;99238.50;5062196;28;45423;-67
2021/10/03 04:55:23;;;;;;;;;0.00;0.00;;;;;24.43;44.78;99253.91;5063281;28;45495;-67
2021/10/03 04:57:49;;;;;;;;;0.00;0.00;;;;;24.47;44.68;99266.47;5070758;28;45320;-67
2021/10/03 05:00:15;;;;;;;;;1.00;1.00;;;;;24.48;44.55;99256.66;5055795;28;47946;-67
2021/10/03 05:02:40;;;;;;;;;0.00;0.00;;;;;24.47;44.61;99263.81;5057101;27;45222;-67
2021/10/03 05:05:06;;;;;;;;;0.33;0.33;;;;;24.47;44.35;99268.31;5061032;28;45288;-67
2021/10/03 05:07:32;;;;;;;;;1.00;0.00;;;;;24.47;44.64;99271.78;5061043;28;47031;-67
2021/10/03 05:09:57;;;;;;;;;0.00;0.00;;;;;24.45;44.62;99265.09;5061055;28;45327;-67
2021/10/03 05:12:22;;;;;;;;;0.00;0.00;;;;;24.46;44.27;99275.47;5057044;28;45301;-67
2021/10/03 05:14:48;;;;;;;;;0.00;0.00;;;;;24.47;44.70;99269.13;5059460;28;45370;-67
2021/10/03 05:17:13;;;;;;;;;0.00;0.00;;;;;24.46;44.75;99253.44;5060966;28;45423;-67
2021/10/03 05:19:38;;;;;;;;;0.00;0.00;;;;;24.46;44.60;99251.56;5064447;28;45530;-67
2021/10/03 05:22:04;;;;;;;;;0.00;0.00;;;;;24.43;44.55;99251.25;5068658;28;45390;-67
2021/10/03 05:24:31;;;;;;;;;0.00;0.00;;;;;24.46;44.56;99266.72;5058017;28;45494;-67
2021/10/03 05:26:57;;;;;;;;;2.00;0.33;;;;;24.44;44.66;99271.44;5054881;28;46206;-67
2021/10/03 05:29:22;;;;;;;;;0.00;0.00;;;;;24.45;44.39;99273.88;5073444;28;45342;-65
2021/10/03 05:31:48;;;;;;;;;0.00;0.00;;;;;24.46;44.56;99264.06;5073694;27;45515;-67
2021/10/03 05:34:13;;;;;;;;;0.00;0.00;;;;;24.44;44.38;99253.66;5071818;27;45447;-67
2021/10/03 05:36:38;;;;;;;;;0.00;0.00;;;;;24.36;44.54;99256.66;5073192;27;46964;-67
2021/10/03 05:39:04;;;;;;;;;0.33;0.33;;;;;24.42;44.66;99263.72;5074460;28;45397;-67
2021/10/03 05:41:30;;;;;;;;;1.00;0.00;;;;;24.43;44.52;99278.63;5074375;28;45390;-67
2021/10/03 05:43:56;;;;;;;;;0.00;0.00;;;;;24.42;44.38;99274.34;5071206;27;45454;-67
2021/10/03 05:46:22;;;;;;;;;0.00;0.00;;;;;24.43;44.16;99262.69;5073003;27;45405;-67
2021/10/03 05:48:48;;;;;;;;;0.33;0.33;;;;;24.40;44.21;99263.97;5073244;27;45564;-67
2021/10/03 05:51:13;;;;;;;;;0.00;0.00;;;;;24.42;44.50;99249.59;5071615;28;45471;-67
2021/10/03 05:53:39;;;;;;;;;0.00;0.00;;;;;24.44;44.62;99231.56;5075886;28;45432;-67
2021/10/03 05:56:05;;;;;;;;;0.00;0.00;;;;;24.42;44.58;99237.13;5076413;27;46123;-67
2021/10/03 05:58:30;;;;;;;;;0.00;0.00;;;;;24.41;44.20;99246.13;5074556;27;45492;-67
2021/10/03 06:00:55;;;;;;;;;0.67;0.00;;;;;24.42;44.46;99268.22;5072158;28;45467;-67
2021/10/03 06:03:21;;;;;;;;;1.00;0.00;;;;;24.43;44.25;99285.78;5058607;28;45611;-67
2021/10/03 06:05:46;;;;;;;;;0.00;0.00;;;;;24.42;44.68;99294.78;5062506;28;46047;-67
2021/10/03 06:08:15;;;;;;;;;1.00;0.00;;;;;24.38;44.25;99300.56;5063722;28;45377;-67
2021/10/03 06:10:40;;;;;;;;;0.00;0.00;;;;;24.42;44.56;99329.34;5063507;28;45426;-66
2021/10/03 06:13:06;;;;;;;;;0.00;0.00;;;;;24.39;44.29;99326.13;5063591;28;45442;-67
2021/10/03 06:15:32;;;;;;;;;0.00;0.00;;;;;24.39;44.14;99322.66;5059875;28;46933;-67
2021/10/03 06:17:57;;;;;;;;;0.00;0.00;;;;;24.42;44.36;99319.53;5061632;28;45360;-67
2021/10/03 06:20:23;;;;;;;;;0.00;0.00;;;;;24.33;44.39;99315.63;5063725;27;45471;-67
2021/10/03 06:22:48;;;;;;;;;0.00;0.00;;;;;24.35;44.10;99335.63;5063902;28;45337;-67
2021/10/03 06:25:14;;;;;;;;;0.00;0.00;;;;;24.36;44.31;99353.16;5063242;28;45300;-67
2021/10/03 06:27:40;;;;;;;;;0.00;0.00;;;;;24.41;44.35;99357.78;5061010;28;45552;-67
2021/10/03 06:30:06;;;;;;;;;0.00;0.00;;;;;24.41;44.45;99349.81;5061510;28;45273;-67
2021/10/03 06:32:31;;;;;;;;;0.00;0.00;;;;;24.39;44.07;99350.06;5062775;27;45967;-67
2021/10/03 06:34:56;;;;;;;;;0.00;0.00;;;;;24.40;44.20;99370.28;5063096;28;46433;-67
2021/10/03 06:37:22;;;;;;;;;0.00;0.00;;;;;24.40;43.92;99388.09;5066372;28;45419;-67
2021/10/03 06:39:47;;;;;;;;;0.00;0.00;;;;;24.39;44.17;99403.22;5075651;27;45653;-66
2021/10/03 06:42:13;;;;;;;;;0.00;0.00;;;;;24.42;44.56;99411.75;5075047;27;45432;-67
2021/10/03 06:44:38;;;;;;;;;0.00;0.00;;;;;24.42;44.23;99415.22;5059139;27;46559;-67
2021/10/03 06:47:09;;;;;;;;;0.00;0.00;;;;;24.42;44.15;99423.22;5059418;28;45402;-67
2021/10/03 06:49:36;;;;;;;;;0.00;0.00;;;;;24.40;44.29;99412.00;5060008;28;45335;-67
2021/10/03 06:52:02;;;;;;;;;0.00;0.00;;;;;24.40;43.96;99375.59;5063160;28;45446;-67
2021/10/03 06:54:27;;;;;;;;;0.00;0.00;;;;;24.40;43.96;99369.47;5059577;28;46125;-67
2021/10/03 06:56:53;;;;;;;;;0.00;0.00;;;;;24.35;44.27;99380.00;5057267;28;45458;-67
2021/10/03 06:59:18;;;;;;;;;0.00;0.00;;;;;24.40;44.32;99401.38;5059896;28;45302;-67
2021/10/03 07:01:44;;;;;;;;;0.00;0.00;;;;;24.39;44.51;99419.16;5069279;27;45423;-67
2021/10/03 07:04:09;;;;;;;;;0.00;0.00;;;;;24.39;43.87;99437.78;5068044;28;45953;-67
2021/10/03 07:06:35;;;;;;;;;0.00;0.00;;;;;24.38;44.13;99457.41;5059647;28;45358;-67
2021/10/03 07:09:00;;;;;;;;;0.00;0.00;;;;;24.39;44.39;99468.84;5057188;28;45228;-67
2021/10/03 07:11:25;;;;;;;;;0.00;0.00;;;;;24.38;43.98;99465.38;5059566;27;45294;-67
2021/10/03 07:13:51;;;;;;;;;0.33;0.33;;;;;24.31;44.04;99448.72;5061094;27;46035;-67
2021/10/03 07:16:17;;;;;;;;;0.00;0.00;;;;;24.39;44.58;99439.63;5077536;27;45272;-67
2021/10/03 07:18:43;;;;;;;;;0.00;0.00;;;;;24.29;43.82;99424.25;5063261;27;45640;-67
2021/10/03 07:21:08;;;;;;;;;0.00;0.00;;;;;24.37;44.15;99437.19;5057374;28;45359;-67
2021/10/03 07:23:34;;;;;;;;;0.00;0.00;;;;;24.37;44.02;99466.44;5058445;28;47078;-67
2021/10/03 07:25:59;;;;;;;;;0.00;0.00;;;;;24.37;43.85;99474.41;5059260;28;45352;-67
2021/10/03 07:28:25;;;;;;;;;0.00;0.00;;;;;24.37;43.91;99479.72;5062903;28;45392;-67
2021/10/03 07:30:51;;;;;;;;;0.00;0.00;;;;;24.37;44.34;99487.69;5061308;28;45362;-67
2021/10/03 07:33:18;;;;;;;;;0.00;0.00;;;;;24.35;44.26;99484.47;5059191;28;46039;-67
2021/10/03 07:35:44;;;;;;;;;0.00;0.00;;;;;24.24;44.14;99472.75;5060818;28;45318;-67
2021/10/03 07:38:10;;;;;;;;;0.00;0.00;;;;;24.37;43.93;99490.34;5062264;28;45422;-67
2021/10/03 07:40:35;;;;;;;;;1.00;0.00;;;;;24.38;43.94;99504.47;5062312;28;45411;-67
2021/10/03 07:43:00;;;;;;;;;0.00;0.00;;;;;24.37;43.91;99503.66;5062322;28;47164;-67
2021/10/03 07:45:26;;;;;;;;;0.00;0.00;;;;;24.37;44.38;99508.16;5058269;28;45384;-67
2021/10/03 07:47:51;;;;;;;;;0.00;0.00;;;;;24.38;44.38;99504.47;5061186;28;45260;-67
2021/10/03 07:50:17;;;;;;;;;0.00;0.00;;;;;24.35;44.00;99494.28;5080347;27;45670;-67
2021/10/03 07:52:42;;;;;;;;;0.00;0.00;;;;;24.37;44.02;99505.50;5094547;27;47173;-67
2021/10/03 07:55:08;;;;;;;;;0.00;0.00;;;;;24.37;44.07;99527.56;5061999;28;45629;-67
2021/10/03 07:57:34;;;;;;;;;0.33;0.00;;;;;24.37;44.29;99551.50;5058428;28;45324;-67
2021/10/03 08:00:00;;;;;;;;;0.00;0.00;;;;;24.38;44.02;99579.69;5075980;28;45462;-67
2021/10/03 08:02:26;;;;;;;;;0.00;0.00;;;;;24.35;43.80;99588.13;5073946;28;45509;-67
2021/10/03 08:04:51;;;;;;;;;0.00;0.00;;;;;24.36;44.14;99586.25;5074355;28;45560;-67
2021/10/03 08:07:16;;;;;;;;;0.00;0.00;;;;;24.37;44.06;99604.66;5074417;27;45485;-67
2021/10/03 08:09:42;;;;;;;;;0.00;0.00;;;;;24.37;43.68;99633.09;5073175;27;45769;-67
2021/10/03 08:12:08;;;;;;;;;0.00;0.00;;;;;24.38;44.02;99640.81;5075025;27;47534;-67
2021/10/03 08:14:33;;;;;;;;;0.00;0.00;;;;;24.38;44.23;99630.19;5075799;28;45446;-67
2021/10/03 08:16:58;;;;;;;;;0.00;0.00;;;;;24.37;44.16;99588.72;5073762;27;45409;-67
2021/10/03 08:19:23;;;;;;;;;0.00;0.00;;;;;24.33;44.19;99582.22;5072736;27;45494;-67
2021/10/03 08:21:49;;;;;;;;;0.00;0.00;;;;;24.37;44.07;99620.59;5073668;28;53304;-67
2021/10/03 08:24:14;;;;;;;;;0.00;0.00;;;;;24.33;43.80;99637.25;5074589;27;45389;-67
2021/10/03 08:26:39;;;;;;;;;0.00;0.00;;;;;24.36;44.31;99663.34;5076343;28;45417;-67
2021/10/03 08:29:05;;;;;;;;;0.00;0.00;;;;;24.36;43.89;99661.50;5074373;27;45346;-67
2021/10/03 08:31:31;;;;;;;;;0.00;0.00;;;;;24.35;44.37;99651.13;5074136;28;45298;-67
2021/10/03 08:33:56;;;;;;;;;0.33;0.33;;;;;24.27;44.32;99631.78;5069856;27;45572;-66
2021/10/03 08:36:22;;;;;;;;;0.00;0.00;;;;;24.34;44.12;99662.78;5071351;27;45403;-66
2021/10/03 08:38:47;;;;;;;;;0.00;0.00;;;;;24.34;44.28;99684.03;5091106;27;45361;-66
2021/10/03 08:41:12;;;;;;;;;0.00;0.00;;;;;24.33;44.12;99691.19;5074356;27;46387;-66
2021/10/03 08:43:38;;;;;;;;;0.00;0.00;;;;;24.35;44.38;99706.94;5071538;27;45617;-66
2021/10/03 08:46:06;;;;;;;;;0.00;0.00;;;;;24.36;44.25;99716.50;5072789;27;45501;-66
2021/10/03 08:48:32;;;;;;;;;1.00;0.00;;;;;24.36;44.32;99709.34;5074005;27;45421;-67
2021/10/03 08:50:59;;;;;;;;;0.00;0.00;;;;;24.33;44.49;99707.13;5071938;27;45475;-66
2021/10/03 08:53:24;;;;;;;;;0.00;0.00;;;;;24.38;44.02;99706.50;5074250;27;45542;-66
2021/10/03 08:55:51;;;;;;;;;0.00;0.00;;;;;24.34;44.67;99695.47;5069968;27;45973;-66
2021/10/03 08:58:16;;;;;;;;;1.33;0.00;;;;;24.26;44.75;99688.63;5074477;27;45908;-66
2021/10/03 09:00:48;;;;;;;;;0.00;0.00;;;;;24.40;44.95;99731.81;5073162;27;46859;-66
2021/10/03 09:03:14;;;;;;;;;0.00;0.00;;;;;24.42;44.82;99734.25;5073368;27;45505;-66
2021/10/03 09:05:51;;;;;;;;;1.33;0.00;;;;;24.33;44.39;99704.47;5070884;27;45387;-66
2021/10/03 09:08:18;;;;;;;;;0.00;0.00;;;;;24.46;44.67;99724.78;5072900;27;45434;-66
2021/10/03 09:10:51;;;;;;;;;0.33;0.33;;;;;24.48;44.61;99724.56;5071023;27;46356;-66
2021/10/03 09:13:18;;;;;;;;;0.00;0.00;;;;;24.46;44.70;99722.09;5073061;27;45486;-66
2021/10/03 09:15:46;;;;;;;;;2.00;0.00;;;;;24.48;44.79;99704.13;5071321;27;45607;-67
2021/10/03 09:18:15;;;;;;;;;1.33;0.00;;;;;24.39;44.53;99686.81;5071187;27;45510;-67
2021/10/03 09:20:41;;;;;;;;;0.00;0.00;;;;;24.50;44.46;99720.66;5070650;27;47207;-66
2021/10/03 09:23:13;;;;;;;;;0.00;0.00;;;;;24.39;44.81;99732.84;5069488;27;45529;-66
2021/10/03 09:25:48;;;;;;;;;0.00;0.00;;;;;24.51;44.36;99754.16;5071136;27;45418;-66
2021/10/03 09:28:25;;;;;;;;;0.00;0.00;;;;;24.52;44.45;99765.59;5072084;27;45609;-67
2021/10/03 09:31:14;;;;;;;;;0.00;0.00;;;;;24.53;44.64;99788.50;5071578;27;46382;-67
2021/10/03 09:33:45;;;;;;;;;0.00;0.00;;;;;24.54;44.88;99790.13;5073249;27;45475;-67
2021/10/03 09:36:14;;;;;;;;;2.00;0.00;;;;;24.51;44.91;99795.91;5076673;27;45375;-66
2021/10/03 09:39:04;;;;;;;;;0.00;0.00;;;;;24.56;44.55;99803.22;5075883;27;45568;-66
2021/10/03 09:41:33;;;;;;;;;0.00;0.00;;;;;24.58;44.85;99798.47;5076143;27;46267;-66
2021/10/03 09:44:05;;;;;;;;;0.00;0.00;;;;;24.58;44.54;99807.28;5072243;27;45552;-67
2021/10/03 09:46:38;;;;;;;;;0.00;0.00;;;;;24.59;44.52;99837.34;5076540;27;45438;-66
2021/10/03 09:49:06;;;;;;;;;0.00;0.00;;;;;24.59;44.52;99848.78;5076160;27;45451;-64
2021/10/03 09:51:33;;;;;;;;;0.00;0.00;;;;;24.59;44.53;99859.41;5075883;27;47175;-66
2021/10/03 09:53:58;;;;;;;;;0.00;0.00;;;;;24.57;44.62;99861.47;5075633;27;45458;-66
2021/10/03 09:56:24;;;;;;;;;0.00;0.00;;;;;24.55;44.48;99854.75;5076819;27;45291;-67
2021/10/03 09:58:52;;;;;;;;;0.00;0.00;;;;;24.60;44.43;99877.00;5075814;27;45548;-67
2021/10/03 10:01:17;;;;;;;;;0.00;0.00;;;;;24.60;44.29;99874.34;5076508;27;46113;-66
2021/10/03 10:03:43;;;;;;;;;0.00;0.00;;;;;24.61;44.08;99881.28;5075334;27;45373;-67
2021/10/03 10:06:09;;;;;;;;;0.00;0.00;;;;;24.61;44.17;99883.97;5077553;27;45412;-66
2021/10/03 10:08:36;;;;;;;;;0.00;0.00;;;;;24.62;44.21;99908.69;5075773;27;45594;-66
2021/10/03 10:11:15;;;;;;;;;0.00;0.00;;;;;24.61;44.30;99915.06;5075247;27;46156;-66
2021/10/03 10:13:47;;;;;;;;;0.67;0.00;;;;;24.61;44.29;99921.19;5087370;27;45988;-66
2021/10/03 10:16:33;;;;;;;;;0.00;0.00;;;;;24.62;44.09;99930.78;5076348;27;45412;-67
2021/10/03 10:19:27;;;;;;;;;0.00;0.00;;;;;24.61;44.47;99942.47;5071125;27;45532;-66
2021/10/03 10:22:11;;;;;;;;;0.00;0.00;;;;;24.62;43.93;99946.72;5073845;27;47372;-66
2021/10/03 10:24:54;;;;;;;;;0.00;0.00;;;;;24.62;44.24;99953.88;5072352;27;45221;-66
2021/10/03 10:27:24;;;;;;;;;1.00;0.00;;;;;24.61;44.36;99969.06;5075324;27;45520;-66
2021/10/03 10:30:06;;;;;;;;;0.00;0.00;;;;;24.61;44.20;99982.34;5077926;27;45351;-66
2021/10/03 10:32:55;;;;;;;;;0.33;0.00;;;;;24.62;44.13;99985.81;5076003;27;45995;-66
2021/10/03 10:35:20;;;;;;;;;0.00;0.00;;;;;24.59;44.05;99986.25;5075699;27;45574;-66
2021/10/03 10:37:49;;;;;;;;;0.00;0.00;;;;;24.63;44.22;99992.75;5074538;27;45508;-66
2021/10/03 10:40:23;;;;;;;;;0.00;0.00;;;;;24.63;44.15;99998.91;5075817;27;45509;-66
2021/10/03 10:42:53;;;;;;;;;1.00;0.00;;;;;24.66;43.96;100004.81;5069223;27;46356;-66
2021/10/03 10:45:27;;;;;;;;;0.00;0.00;;;;;24.66;44.28;100015.44;5073163;27;46010;-66
2021/10/03 10:48:13;;;;;;;;;0.67;0.00;;;;;24.66;43.91;100020.75;5072312;27;45310;-66
2021/10/03 10:50:42;;;;;;;;;0.00;0.00;;;;;24.67;43.93;100025.06;5070970;27;45694;-65
2021/10/03 10:53:32;;;;;;;;;1.00;0.00;;;;;24.63;44.32;100033.47;5075188;27;47119;-66
2021/10/03 10:56:02;;;;;;;;;0.00;0.00;;;;;24.67;44.09;100025.84;5071198;27;45520;-66
2021/10/03 10:58:28;;;;;;;;;0.00;0.00;;;;;24.68;44.08;100040.78;5074696;27;45980;-66
2021/10/03 11:00:58;;;;;;;;;0.00;0.00;;;;;24.68;43.79;100047.94;5074183;27;45577;-67
2021/10/03 11:03:42;;;;;;;;;0.00;0.00;;;;;24.68;44.26;100056.75;5076032;27;46003;-67
2021/10/03 11:06:33;;;;;;;;;0.00;0.00;;;;;24.61;43.62;100059.47;5076043;27;45312;-67
2021/10/03 11:09:10;;;;;;;;;0.00;0.00;;;;;24.60;43.77;100059.69;5075760;28;45497;-67
2021/10/03 11:11:57;;;;;;;;;1.00;0.00;;;;;24.59;43.57;100069.50;5075522;28;45371;-67
2021/10/03 11:14:27;;;;;;;;;0.00;0.00;;;;;24.62;44.30;100077.03;5074422;27;46972;-67
2021/10/03 11:17:00;;;;;;;;;0.00;0.00;;;;;24.63;43.75;100077.88;5071994;27;45355;-67
2021/10/03 11:19:38;;;;;;;;;1.00;0.00;;;;;24.65;43.79;100078.47;5075535;27;45415;-67
2021/10/03 11:22:16;;;;;;;;;0.00;0.00;;;;;24.66;44.02;100087.25;5054141;28;45693;-67
2021/10/03 11:24:54;;;;;;;;;1.00;0.00;;;;;24.67;43.88;100086.25;5072708;27;46122;-67
2021/10/03 11:27:21;;;;;;;;;0.00;0.00;;;;;24.66;44.11;100109.34;5074724;27;45443;-68
2021/10/03 11:29:51;;;;;;;;;0.00;0.00;;;;;24.68;44.11;100101.16;5075280;28;45496;-67
2021/10/03 11:32:28;;;;;;;;;0.00;0.00;;;;;24.68;44.19;100117.94;5076577;27;46292;-67